Time;durP1;ratioP1;P1;durP2;ratioP2;P2;SDS_P1;SDS_P2;PMS_P1;PMS_P2;Temp;Humidity;BMP_temperature;BMP_pressure;BME280_temperature;BME280_humidity;BME280_pressure;Samples;Min_cycle;Max_cycle;Signal;HPM_P1;HPM_P2
2023/02/19 00:01:14;;;;;;;513.22;322.92;;;179.70;2252.80;;;;;;4975809;28;20000;-89
2023/02/19 00:03:41;;;;;;;481.77;309.50;;;179.70;2252.80;;;;;;4975562;28;20125;-89
2023/02/19 00:06:09;;;;;;;472.48;302.02;;;179.60;2252.80;;;;;;4975818;28;20030;-89
2023/02/19 00:08:37;;;;;;;486.80;302.60;;;179.50;2252.80;;;;;;4975883;28;20034;-89
2023/02/19 00:11:10;;;;;;;524.58;327.55;;;179.70;2252.80;;;;;;4975701;28;20474;-88
2023/02/19 00:13:41;;;;;;;490.75;312.33;;;179.70;2252.80;;;;;;4975541;28;20031;-88
2023/02/19 00:16:28;;;;;;;538.47;339.33;;;179.40;2252.80;;;;;;4977008;28;20475;-86
2023/02/19 00:18:55;;;;;;;527.10;321.77;;;179.30;2252.80;;;;;;4975012;28;20425;-85
2023/02/19 00:21:21;;;;;;;583.75;357.98;;;179.20;2252.80;;;;;;4975540;28;20031;-88
2023/02/19 00:23:56;;;;;;;503.70;305.65;;;179.40;2252.80;;;;;;4975485;28;20106;-88
2023/02/19 00:26:22;;;;;;;442.00;267.02;;;179.30;2252.80;;;;;;4975378;28;20487;-88
2023/02/19 00:28:49;;;;;;;396.77;250.52;;;179.30;2252.80;;;;;;4975128;28;20042;-88
2023/02/19 00:31:27;;;;;;;364.95;233.15;;;179.40;2252.80;;;;;;4974908;28;20074;-87
2023/02/19 00:33:55;;;;;;;393.00;240.75;;;179.30;2252.80;;;;;;4975296;28;20026;-88
2023/02/19 00:36:22;;;;;;;415.52;255.48;;;179.40;2252.80;;;;;;4975457;28;20030;-89
2023/02/19 00:38:49;;;;;;;433.95;263.02;;;179.50;2252.80;;;;;;4975257;28;20035;-89
2023/02/19 00:41:19;;;;;;;426.58;259.00;;;179.70;2252.80;;;;;;4974849;28;20031;-88
2023/02/19 00:43:52;;;;;;;420.33;254.48;;;179.50;2252.80;;;;;;4974976;28;20477;-88
2023/02/19 00:46:29;;;;;;;402.58;256.00;;;179.50;2252.80;;;;;;4975004;28;20030;-88
2023/02/19 00:48:56;;;;;;;391.15;245.30;;;179.50;2252.80;;;;;;4975930;28;20552;-88
2023/02/19 00:51:25;;;;;;;387.52;242.90;;;179.60;2252.80;;;;;;4975976;28;20026;-89
2023/02/19 00:53:51;;;;;;;390.42;239.82;;;179.50;2252.80;;;;;;4981745;28;20003;-88
2023/02/19 00:56:17;;;;;;;425.08;261.02;;;179.50;2252.80;;;;;;4999482;28;20022;-88
2023/02/19 00:58:43;;;;;;;378.70;240.27;;;179.50;2252.80;;;;;;4998350;28;20086;-87
2023/02/19 01:01:10;;;;;;;357.25;230.45;;;179.60;2252.80;;;;;;4977900;28;20042;-90
2023/02/19 01:03:37;;;;;;;359.90;224.50;;;179.50;2252.80;;;;;;4974999;28;20026;-89
2023/02/19 01:06:04;;;;;;;341.30;223.43;;;179.40;2252.80;;;;;;4974977;28;20023;-89
2023/02/19 01:08:31;;;;;;;347.05;220.02;;;154.50;2252.80;;;;;;4974838;28;20085;-88
2023/02/19 01:10:57;;;;;;;372.10;234.48;;;154.30;2252.80;;;;;;4974884;28;20113;-87
2023/02/19 01:13:23;;;;;;;406.98;259.85;;;154.00;2252.80;;;;;;4974265;28;20027;-89
2023/02/19 01:15:49;;;;;;;408.58;252.13;;;154.00;2252.80;;;;;;4974558;28;20431;-91
2023/02/19 01:18:15;;;;;;;443.42;274.98;;;154.00;2252.80;;;;;;4974341;28;20155;-87
2023/02/19 01:20:43;;;;;;;411.67;257.08;;;154.20;2252.80;;;;;;4974397;28;20070;-90
2023/02/19 01:23:10;;;;;;;409.08;258.00;;;154.10;2252.80;;;;;;4977121;28;20110;-88
2023/02/19 01:25:40;;;;;;;373.05;238.45;;;154.10;2252.80;;;;;;4976607;28;20031;-89
2023/02/19 01:28:06;;;;;;;368.85;235.80;;;179.20;2252.80;;;;;;4974383;28;20061;-88
2023/02/19 01:30:36;;;;;;;384.55;233.70;;;154.40;2252.80;;;;;;4974494;28;20061;-88
2023/02/19 01:33:07;;;;;;;373.55;231.93;;;154.30;2252.80;;;;;;4974312;28;20034;-89
2023/02/19 01:35:33;;;;;;;384.35;229.05;;;154.40;2252.80;;;;;;4973894;28;20023;-89
2023/02/19 01:37:59;;;;;;;380.65;229.40;;;154.50;2252.80;;;;;;4974170;28;20031;-89
2023/02/19 01:40:25;;;;;;;351.05;221.52;;;154.50;2252.80;;;;;;4974113;28;20045;-88
2023/02/19 01:42:51;;;;;;;378.17;234.55;;;154.50;2252.80;;;;;;4974052;28;20033;-88
2023/02/19 01:45:34;;;;;;;374.58;237.90;;;154.40;2252.80;;;;;;4974160;28;20039;-88
2023/02/19 01:48:35;;;;;;;340.55;215.48;;;179.20;2252.80;;;;;;4973665;28;20027;-87
2023/02/19 01:51:13;;;;;;;293.90;184.90;;;154.50;2252.80;;;;;;4908068;28;20031;-88
2023/02/19 01:53:43;;;;;;;274.42;172.45;;;179.20;2252.80;;;;;;4962122;28;20033;-87
2023/02/19 01:56:14;;;;;;;283.73;178.75;;;179.20;2252.80;;;;;;4962398;28;20030;-88
2023/02/19 01:58:41;;;;;;;301.75;188.02;;;179.20;2252.80;;;;;;4962561;28;20035;-88
2023/02/19 02:01:07;;;;;;;317.35;194.70;;;154.50;2252.80;;;;;;4961477;28;20055;-88
2023/02/19 02:03:37;;;;;;;290.85;180.93;;;154.30;2252.80;;;;;;4961255;28;20030;-89
2023/02/19 02:06:24;;;;;;;228.82;137.23;;;154.10;2252.80;;;;;;4961158;28;20082;-88
2023/02/19 02:11:42;;;;;;;152.65;93.25;;;154.10;2252.80;;;;;;4979073;28;20118;-89
2023/02/19 02:14:08;;;;;;;115.60;75.68;;;154.10;2252.80;;;;;;4961664;28;20037;-88
2023/02/19 02:16:54;;;;;;;107.85;65.57;;;154.20;2252.80;;;;;;4961486;28;20453;-88
2023/02/19 02:19:22;;;;;;;96.75;61.88;;;154.30;2252.80;;;;;;4961416;28;20117;-88
2023/02/19 02:22:03;;;;;;;96.07;58.83;;;154.30;2252.80;;;;;;4961590;28;20031;-88
2023/02/19 02:24:44;;;;;;;89.85;57.22;;;154.30;2252.80;;;;;;4961306;28;20054;-87
2023/02/19 02:27:34;;;;;;;73.63;49.00;;;154.00;2252.80;;;;;;4961273;28;20030;-88
2023/02/19 02:30:32;;;;;;;94.45;58.53;;;154.00;2252.80;;;;;;4960635;28;20047;-88
2023/02/19 02:33:26;;;;;;;94.80;60.63;;;154.10;2252.80;;;;;;4924862;28;20047;-89
2023/02/19 02:35:59;;;;;;;96.45;60.15;;;154.10;2252.80;;;;;;4960476;28;20023;-88
2023/02/19 02:38:28;;;;;;;92.20;56.00;;;154.00;2252.80;;;;;;4961119;28;20026;-88
2023/02/19 02:40:55;;;;;;;82.90;49.80;;;154.10;2252.80;;;;;;4961211;28;20425;-88
2023/02/19 02:43:21;;;;;;;57.10;39.05;;;154.10;2252.80;;;;;;4961338;28;20058;-88
2023/02/19 02:45:47;;;;;;;49.40;35.17;;;154.10;2252.80;;;;;;4960823;28;20057;-88
2023/02/19 02:48:29;;;;;;;60.80;38.30;;;154.20;2252.80;;;;;;4961081;28;20042;-88
2023/02/19 02:51:00;;;;;;;63.13;38.33;;;154.20;2252.80;;;;;;4977176;28;20521;-89
2023/02/19 02:56:24;;;;;;;49.08;31.50;;;154.30;2252.80;;;;;;4978221;28;20106;-87
2023/02/19 02:58:52;;;;;;;45.35;27.98;;;154.50;2252.80;;;;;;4976485;28;20118;-89
2023/02/19 03:02:11;;;;;;;43.53;27.90;;;154.40;2252.80;;;;;;4977007;28;20031;-88
2023/02/19 03:08:15;;;;;;;53.45;30.70;;;154.50;2252.80;;;;;;4977893;28;20391;-87
2023/02/19 03:10:52;;;;;;;50.33;34.15;;;154.30;2252.80;;;;;;4976677;28;20033;-88
2023/02/19 03:19:17;;;;;;;79.57;46.90;;;154.00;2252.80;;;;;;4977484;28;20089;-88
2023/02/19 03:21:47;;;;;;;72.67;43.00;;;154.10;2252.80;;;;;;4976554;28;20042;-88
2023/02/19 03:27:02;;;;;;;89.35;50.33;;;154.10;2252.80;;;;;;4977641;28;20122;-88
2023/02/19 03:29:30;;;;;;;82.57;45.85;;;154.10;2252.80;;;;;;4976768;28;20042;-88
2023/02/19 03:32:00;;;;;;;87.75;49.25;;;154.30;2252.80;;;;;;4976456;28;20027;-89
2023/02/19 03:34:33;;;;;;;88.32;49.70;;;154.10;2252.80;;;;;;4976308;28;20023;-88
2023/02/19 03:37:29;;;;;;;109.07;57.08;;;154.10;2252.80;;;;;;4976308;28;20034;-88
2023/02/19 03:39:56;;;;;;;154.70;73.05;;;154.00;2252.80;;;;;;4968380;28;20054;-88
2023/02/19 03:42:58;;;;;;;131.90;66.55;;;153.60;2252.80;;;;;;4975825;28;20486;-88
2023/02/19 03:45:24;;;;;;;99.03;53.17;;;154.10;2252.80;;;;;;4976094;28;20027;-88
2023/02/19 03:48:16;;;;;;;64.55;35.92;;;154.10;2252.80;;;;;;4975755;28;20022;-88
2023/02/19 03:50:49;;;;;;;61.63;36.57;;;154.10;2252.80;;;;;;4960175;28;20033;-88
2023/02/19 03:53:43;;;;;;;48.35;29.27;;;154.10;2252.80;;;;;;4955416;29;20360;-87
2023/02/19 03:56:27;;;;;;;59.97;33.88;;;154.10;2252.80;;;;;;4939677;29;20464;-87
2023/02/19 03:58:59;;;;;;;63.83;38.28;;;154.10;2252.80;;;;;;4940175;29;20118;-88
2023/02/19 04:01:46;;;;;;;80.00;44.05;;;154.10;2252.80;;;;;;4940171;29;20042;-88
2023/02/19 04:04:18;;;;;;;97.65;55.38;;;154.10;2252.80;;;;;;4940594;29;20061;-89
2023/02/19 04:06:51;;;;;;;82.30;45.20;;;154.10;2252.80;;;;;;4940425;29;20110;-89
2023/02/19 04:09:20;;;;;;;72.38;38.10;;;154.10;2252.80;;;;;;4940426;29;20031;-87
2023/02/19 04:11:48;;;;;;;62.53;36.78;;;154.00;2252.80;;;;;;4940227;29;20073;-88
2023/02/19 04:14:33;;;;;;;43.15;27.08;;;154.00;2252.80;;;;;;4939635;29;20063;-88
2023/02/19 04:17:04;;;;;;;55.38;32.03;;;154.00;2252.80;;;;;;4940005;29;20034;-87
2023/02/19 04:19:34;;;;;;;42.65;25.10;;;154.00;2252.80;;;;;;4940130;29;20031;-88
2023/02/19 04:22:03;;;;;;;47.30;29.80;;;154.00;2252.80;;;;;;4940074;29;20034;-87
2023/02/19 04:24:37;;;;;;;53.83;31.98;;;154.00;2252.80;;;;;;4940005;29;20029;-89
2023/02/19 04:27:04;;;;;;;60.38;34.35;;;154.10;2252.80;;;;;;4940116;29;20023;-88
2023/02/19 04:29:30;;;;;;;60.63;32.78;;;154.10;2252.80;;;;;;4940759;29;20067;-88
2023/02/19 04:31:55;;;;;;;40.83;23.38;;;154.00;2252.80;;;;;;4942801;29;20518;-87
2023/02/19 04:34:21;;;;;;;32.35;21.33;;;153.90;2252.80;;;;;;4941202;29;20527;-88
2023/02/19 04:36:47;;;;;;;37.80;22.45;;;153.90;2252.80;;;;;;4939584;29;20031;-88
2023/02/19 04:39:13;;;;;;;84.07;43.35;;;153.70;2252.80;;;;;;4939698;29;20505;-87
2023/02/19 04:41:39;;;;;;;91.38;48.38;;;153.80;2252.80;;;;;;4939415;29;20389;-88
2023/02/19 04:44:05;;;;;;;77.45;41.33;;;128.90;2252.80;;;;;;4939325;29;20039;-87
2023/02/19 04:46:30;;;;;;;50.25;28.95;;;128.80;2252.80;;;;;;4939689;29;20034;-87
2023/02/19 04:48:56;;;;;;;40.85;25.40;;;128.80;2252.80;;;;;;4945365;29;20448;-88
2023/02/19 04:51:22;;;;;;;35.05;21.17;;;128.80;2252.80;;;;;;4955254;29;20475;-88
2023/02/19 04:53:48;;;;;;;30.52;19.80;;;153.60;2252.80;;;;;;4955451;29;20074;-88
2023/02/19 04:56:16;;;;;;;35.15;18.65;;;153.70;2252.80;;;;;;4955468;29;20023;-87
2023/02/19 04:58:42;;;;;;;28.27;17.30;;;153.70;2252.80;;;;;;4955112;29;20110;-88
2023/02/19 05:01:09;;;;;;;29.15;17.42;;;153.60;2252.80;;;;;;4955457;29;20471;-88
2023/02/19 05:03:35;;;;;;;35.63;21.33;;;128.90;2252.80;;;;;;4955413;29;20027;-89
2023/02/19 05:06:06;;;;;;;50.53;33.38;;;128.60;2252.80;;;;;;4955119;29;20082;-88
2023/02/19 05:08:32;;;;;;;94.43;53.22;;;128.70;2252.80;;;;;;4955371;29;20075;-88
2023/02/19 05:10:59;;;;;;;109.70;61.33;;;128.80;2252.80;;;;;;4955197;29;20024;-90
2023/02/19 05:13:25;;;;;;;89.05;51.90;;;128.90;2252.80;;;;;;4954919;29;20038;-89
2023/02/19 05:16:00;;;;;;;77.22;46.30;;;153.80;2252.80;;;;;;4955125;29;20027;-88
2023/02/19 05:18:26;;;;;;;71.38;39.20;;;153.80;2252.80;;;;;;4955024;29;20028;-87
2023/02/19 05:20:53;;;;;;;67.95;39.15;;;153.80;2252.80;;;;;;4955037;29;20042;-89
2023/02/19 05:23:19;;;;;;;62.72;37.47;;;128.90;2252.80;;;;;;4955012;29;20035;-89
2023/02/19 05:25:46;;;;;;;50.20;33.88;;;128.90;2252.80;;;;;;4954488;28;20034;-89
2023/02/19 05:28:17;;;;;;;56.30;31.58;;;153.80;2252.80;;;;;;4954794;29;20027;-89
2023/02/19 05:30:44;;;;;;;50.08;31.00;;;128.90;2252.80;;;;;;4955111;29;20475;-90
2023/02/19 05:33:09;;;;;;;60.13;35.20;;;128.90;2252.80;;;;;;4954645;29;20042;-90
2023/02/19 05:35:52;;;;;;;84.28;44.38;;;128.90;2252.80;;;;;;4954801;29;20031;-88
2023/02/19 05:38:18;;;;;;;71.63;39.83;;;128.90;2252.80;;;;;;4954627;29;20023;-89
2023/02/19 05:40:44;;;;;;;69.95;40.35;;;128.90;2252.80;;;;;;4954472;29;20065;-88
2023/02/19 05:43:11;;;;;;;66.22;38.45;;;153.60;2252.80;;;;;;4954519;29;20494;-89
2023/02/19 05:45:37;;;;;;;70.32;40.53;;;128.90;2252.80;;;;;;4954912;29;20041;-90
2023/02/19 05:48:04;;;;;;;65.07;37.33;;;128.80;2252.80;;;;;;4954437;28;20214;-89
2023/02/19 05:50:32;;;;;;;65.15;38.22;;;153.90;2252.80;;;;;;4939132;29;20392;-90
2023/02/19 05:53:02;;;;;;;63.05;40.10;;;153.60;2252.80;;;;;;4946626;29;20024;-89
2023/02/19 05:55:29;;;;;;;63.15;38.60;;;153.70;2252.80;;;;;;4954165;29;20375;-89
2023/02/19 05:57:55;;;;;;;78.85;44.85;;;153.70;2252.80;;;;;;4938184;29;20094;-90
2023/02/19 06:00:21;;;;;;;88.60;52.40;;;153.70;2252.80;;;;;;4943499;28;20475;-88
2023/02/19 06:02:47;;;;;;;111.63;63.83;;;153.70;2252.80;;;;;;4957674;28;20081;-89
2023/02/19 06:05:13;;;;;;;117.90;63.97;;;128.90;2252.80;;;;;;4956950;28;20467;-89
2023/02/19 06:07:40;;;;;;;111.70;67.05;;;128.70;2252.80;;;;;;4957871;28;20030;-89
2023/02/19 06:10:06;;;;;;;100.90;62.63;;;;;;;;;;4958098;28;20471;-89
2023/02/19 06:12:32;;;;;;;85.00;54.17;;;128.60;2252.80;;;;;;4957904;28;20475;-88
2023/02/19 06:14:58;;;;;;;78.70;51.72;;;128.70;2252.80;;;;;;4973176;28;20030;-89
2023/02/19 06:17:24;;;;;;;76.45;48.92;;;128.90;2252.80;;;;;;4957905;28;20430;-89
2023/02/19 06:19:50;;;;;;;80.60;50.97;;;128.80;2252.80;;;;;;4957116;28;20118;-87
2023/02/19 06:22:16;;;;;;;93.85;54.28;;;128.90;2252.80;;;;;;4957582;28;20129;-88
2023/02/19 06:24:42;;;;;;;96.45;57.70;;;128.80;2252.80;;;;;;4957704;28;20027;-88
2023/02/19 06:27:08;;;;;;;93.80;60.65;;;128.90;2252.80;;;;;;4957832;28;20027;-89
2023/02/19 06:29:37;;;;;;;88.90;55.38;;;128.60;2252.80;;;;;;4957775;28;20406;-89
2023/02/19 06:32:04;;;;;;;83.72;50.03;;;128.80;2252.80;;;;;;4958004;28;20027;-89
2023/02/19 06:34:30;;;;;;;72.05;47.70;;;128.80;2252.80;;;;;;4957763;28;20031;-89
2023/02/19 06:36:56;;;;;;;69.78;46.38;;;128.70;2252.80;;;;;;4957508;28;20085;-89
2023/02/19 06:39:22;;;;;;;81.63;54.50;;;128.90;2252.80;;;;;;4960867;28;20036;-89
2023/02/19 06:41:48;;;;;;;72.38;46.38;;;128.90;2252.80;;;;;;4961428;28;20364;-89
2023/02/19 06:44:13;;;;;;;66.50;42.20;;;128.80;2252.80;;;;;;4960998;28;20078;-88
2023/02/19 06:46:39;;;;;;;100.45;61.90;;;128.90;2252.80;;;;;;4961062;28;20023;-88
2023/02/19 06:49:05;;;;;;;72.63;48.63;;;128.90;2252.80;;;;;;4967497;28;20054;-88
2023/02/19 06:51:31;;;;;;;75.40;47.08;;;128.90;2252.80;;;;;;4977334;28;20122;-89
2023/02/19 06:53:58;;;;;;;78.82;51.85;;;153.60;2252.80;;;;;;4977345;28;20030;-89
2023/02/19 06:56:38;;;;;;;79.80;52.00;;;153.70;2252.80;;;;;;4977247;28;20030;-89
2023/02/19 06:59:07;;;;;;;82.88;56.00;;;153.80;2252.80;;;;;;4977540;28;20136;-89
2023/02/19 07:01:34;;;;;;;87.32;60.65;;;153.80;2252.80;;;;;;4972828;28;20039;-90
2023/02/19 07:04:01;;;;;;;101.65;70.25;;;153.80;2252.80;;;;;;4957362;29;20028;-90
2023/02/19 07:06:29;;;;;;;99.70;68.72;;;154.00;2252.80;;;;;;4957307;29;20038;-90
2023/02/19 07:08:56;;;;;;;89.60;57.17;;;154.00;2252.80;;;;;;4957777;29;20364;-89
2023/02/19 07:11:22;;;;;;;71.25;48.38;;;154.10;2252.80;;;;;;4957370;29;20460;-90
2023/02/19 07:13:55;;;;;;;72.05;43.05;;;154.00;2252.80;;;;;;4957560;29;20050;-89
2023/02/19 07:16:21;;;;;;;64.38;42.72;;;154.10;2252.80;;;;;;4957708;29;20027;-89
2023/02/19 07:18:47;;;;;;;62.42;44.25;;;154.20;2252.80;;;;;;4957216;29;20070;-89
2023/02/19 07:21:14;;;;;;;61.20;43.83;;;154.10;2252.80;;;;;;4957526;29;20035;-89
2023/02/19 07:23:41;;;;;;;61.25;35.85;;;154.20;2252.80;;;;;;4957193;29;20118;-89
2023/02/19 07:26:18;;;;;;;49.50;32.50;;;154.20;2252.80;;;;;;4957358;29;20031;-88
2023/02/19 07:28:45;;;;;;;48.97;31.23;;;154.40;2252.80;;;;;;4957484;29;20023;-89
2023/02/19 07:31:11;;;;;;;43.13;28.75;;;154.50;2252.80;;;;;;4956859;29;20059;-88
2023/02/19 07:33:37;;;;;;;53.03;31.88;;;179.40;2252.80;;;;;;4958295;29;20041;-88
2023/02/19 07:36:06;;;;;;;59.88;38.58;;;179.20;2252.80;;;;;;4959297;29;20114;-88
2023/02/19 07:38:31;;;;;;;53.58;36.38;;;179.30;2252.80;;;;;;4970506;29;20023;-91
2023/02/19 07:41:00;;;;;;;64.28;39.28;;;179.40;2252.80;;;;;;4970879;29;20139;-88
2023/02/19 07:43:29;;;;;;;58.20;42.00;;;179.40;2252.80;;;;;;4957292;29;20030;-89
2023/02/19 07:45:55;;;;;;;57.47;40.22;;;179.50;2252.80;;;;;;4956686;29;20055;-88
2023/02/19 07:48:21;;;;;;;65.53;41.80;;;179.50;2252.80;;;;;;4956639;29;20107;-88
2023/02/19 07:50:55;;;;;;;58.15;38.70;;;179.70;2252.80;;;;;;4956075;28;20031;-88
2023/02/19 07:53:21;;;;;;;52.28;35.72;;;179.90;2252.80;;;;;;4956488;29;20027;-88
2023/02/19 07:55:47;;;;;;;55.47;36.13;;;180.00;2252.80;;;;;;4956897;29;20027;-88
2023/02/19 07:58:14;;;;;;;51.83;36.92;;;180.10;2252.80;;;;;;4956853;29;20027;-88
2023/02/19 08:00:39;;;;;;;49.95;33.28;;;204.80;2252.80;;;;;;4956316;29;20031;-88
2023/02/19 08:03:05;;;;;;;47.10;34.53;;;204.80;2252.80;;;;;;4956407;29;20054;-89
2023/02/19 08:05:33;;;;;;;45.92;32.05;;;204.90;2252.80;;;;;;4956653;29;20054;-88
2023/02/19 08:08:00;;;;;;;46.35;33.50;;;205.10;2252.80;;;;;;4956444;29;20039;-88
2023/02/19 08:13:18;;;;;;;43.10;30.42;;;205.30;2252.80;;;;;;4957492;29;20038;-88
2023/02/19 08:16:09;;;;;;;41.47;29.90;;;205.40;2252.80;;;;;;4956568;29;20027;-88
2023/02/19 08:18:35;;;;;;;35.58;26.13;;;205.50;2252.80;;;;;;4951363;29;20490;-87
2023/02/19 08:21:01;;;;;;;36.20;23.95;;;205.60;2252.80;;;;;;4956137;29;20031;-88
2023/02/19 08:23:27;;;;;;;31.98;22.77;;;205.70;2252.80;;;;;;4956245;29;20082;-88
2023/02/19 08:25:57;;;;;;;30.55;20.42;;;230.40;2252.80;;;;;;4956294;29;20098;-87
2023/02/19 08:28:23;;;;;;;31.98;21.50;;;230.50;2252.80;;;;;;4956798;29;20034;-88
2023/02/19 08:30:49;;;;;;;30.98;21.65;;;230.60;2252.80;;;;;;4971558;28;20038;-87
2023/02/19 08:33:17;;;;;;;33.10;27.27;;;230.70;2252.80;;;;;;4975126;28;20030;-86
2023/02/19 08:35:43;;;;;;;27.08;19.77;;;230.80;2252.80;;;;;;4974794;28;20031;-84
2023/02/19 08:38:11;;;;;;;25.80;16.20;;;230.90;2252.80;;;;;;4975279;28;20026;-86
2023/02/19 08:40:38;;;;;;;24.33;16.35;;;231.00;2252.80;;;;;;4974938;28;20390;-87
2023/02/19 08:43:12;;;;;;;23.35;16.25;;;231.10;2252.80;;;;;;4976084;28;20054;-86
2023/02/19 08:45:40;;;;;;;27.35;19.25;;;231.20;2252.80;;;;;;4975152;28;20505;-86
2023/02/19 08:48:06;;;;;;;30.10;21.17;;;231.30;2252.80;;;;;;4974534;28;20119;-87
2023/02/19 08:50:33;;;;;;;30.20;21.40;;;231.30;2252.80;;;;;;4958946;28;20034;-84
2023/02/19 08:52:59;;;;;;;30.58;21.05;;;231.20;2252.80;;;;;;4975795;28;20034;-87
2023/02/19 08:55:26;;;;;;;32.72;22.30;;;256.00;2252.80;;;;;;4958686;28;20022;-87
2023/02/19 08:57:51;;;;;;;33.53;24.00;;;256.10;2252.80;;;;;;4958929;28;20113;-85
2023/02/19 09:00:18;;;;;;;26.63;18.80;;;256.20;2252.80;;;;;;4975833;28;20436;-87
2023/02/19 09:02:44;;;;;;;27.10;20.40;;;256.50;2252.80;;;;;;4958538;28;20086;-87
2023/02/19 09:05:11;;;;;;;21.23;16.50;;;256.70;2252.80;;;;;;4958616;28;20411;-87
2023/02/19 09:07:36;;;;;;;23.70;16.98;;;256.80;2252.80;;;;;;4958608;28;20030;-88
2023/02/19 09:10:03;;;;;;;23.20;17.25;;;256.90;2252.80;;;;;;4958331;28;20031;-88
2023/02/19 09:12:29;;;;;;;32.97;24.45;;;281.60;2278.40;;;;;;4958585;28;20041;-86
2023/02/19 09:14:55;;;;;;;37.30;24.63;;;281.70;2278.40;;;;;;4958715;28;20027;-86
2023/02/19 09:17:21;;;;;;;42.28;26.08;;;281.90;2278.40;;;;;;4976245;28;20027;-87
2023/02/19 09:19:46;;;;;;;73.65;44.63;;;282.00;2278.40;;;;;;4958649;28;20081;-86
2023/02/19 09:22:12;;;;;;;53.30;36.83;;;282.10;2278.40;;;;;;4958394;28;20038;-87
2023/02/19 09:24:38;;;;;;;27.02;20.17;;;282.20;2278.40;;;;;;4958327;28;20451;-87
2023/02/19 09:27:03;;;;;;;23.38;16.65;;;282.30;2278.40;;;;;;4958390;28;20031;-84
2023/02/19 09:29:29;;;;;;;20.13;15.75;;;282.40;2278.40;;;;;;4958245;28;20113;-84
2023/02/19 09:31:59;;;;;;;22.63;14.85;;;282.50;2278.40;;;;;;4958818;28;20037;-85
2023/02/19 09:34:26;;;;;;;18.40;13.48;;;307.20;2304.00;;;;;;4960413;28;20050;-86
2023/02/19 09:36:53;;;;;;;20.13;15.90;;;307.40;2304.00;;;;;;4960513;28;20031;-85
2023/02/19 09:39:19;;;;;;;23.20;14.95;;;307.50;2304.00;;;;;;4959515;28;20475;-85
2023/02/19 09:41:57;;;;;;;21.45;14.70;;;307.60;2304.00;;;;;;4958118;28;20035;-84
2023/02/19 09:44:24;;;;;;;17.17;12.25;;;307.80;2304.00;;;;;;4957777;28;20031;-83
2023/02/19 09:46:52;;;;;;;19.55;14.30;;;307.90;2304.00;;;;;;4958042;28;20061;-86
2023/02/19 09:49:26;;;;;;;20.55;13.82;;;307.90;2304.00;;;;;;4959026;28;20055;-85
2023/02/19 09:51:58;;;;;;;23.58;17.40;;;308.00;2304.00;;;;;;4958531;28;20023;-85
2023/02/19 09:54:26;;;;;;;20.70;15.20;;;308.10;2304.00;;;;;;4958522;28;20049;-85
2023/02/19 09:56:56;;;;;;;27.08;17.60;;;332.80;2329.60;;;;;;4975705;28;20039;-85
2023/02/19 09:59:28;;;;;;;18.98;14.15;;;332.90;2329.60;;;;;;4958736;28;20491;-83
2023/02/19 10:02:01;;;;;;;22.48;14.00;;;333.00;2329.60;;;;;;4937637;29;20182;-82
2023/02/19 10:04:27;;;;;;;25.10;18.42;;;333.10;2329.60;;;;;;4920069;29;20042;-83
2023/02/19 10:06:59;;;;;;;28.75;19.00;;;333.20;2329.60;;;;;;4920235;29;20054;-84
2023/02/19 10:09:27;;;;;;;69.55;37.38;;;333.30;2329.60;;;;;;4919673;29;20032;-84
2023/02/19 10:11:54;;;;;;;24.73;17.42;;;333.20;2329.60;;;;;;4937234;29;20028;-84
2023/02/19 10:14:26;;;;;;;26.55;19.08;;;333.30;2329.60;;;;;;4939897;29;20137;-83
2023/02/19 10:16:52;;;;;;;32.60;20.30;;;333.30;2329.60;;;;;;4923603;29;20028;-83
2023/02/19 10:19:18;;;;;;;25.25;18.27;;;333.30;2329.60;;;;;;4923771;29;20039;-83
2023/02/19 10:21:44;;;;;;;21.65;15.57;;;333.50;2329.60;;;;;;4924539;29;20032;-84
2023/02/19 10:24:20;;;;;;;90.22;46.08;;;358.40;2329.60;;;;;;4941949;29;20032;-83
2023/02/19 10:26:46;;;;;;;49.67;36.70;;;358.40;2329.60;;;;;;4923636;29;20441;-82
2023/02/19 10:29:12;;;;;;;40.92;35.35;;;358.50;2329.60;;;;;;4935525;29;20035;-83
2023/02/19 10:31:37;;;;;;;26.10;18.58;;;358.40;2329.60;;;;;;4946152;29;20035;-82
2023/02/19 10:34:05;;;;;;;22.08;15.52;;;358.50;2329.60;;;;;;4935859;29;20527;-84
2023/02/19 10:36:50;;;;;;;16.27;12.20;;;358.40;2329.60;;;;;;5071482;28;20395;-83
2023/02/19 10:39:43;;;;;;;21.92;14.20;;;358.40;2329.60;;;;;;5072747;28;20063;-82
2023/02/19 10:42:21;;;;;;;17.63;12.15;;;358.50;2329.60;;;;;;5071833;28;20514;-83
2023/02/19 10:44:57;;;;;;;22.00;13.30;;;358.60;2329.60;;;;;;5074222;28;20036;-83
2023/02/19 10:47:25;;;;;;;17.25;12.98;;;358.70;2329.60;;;;;;5072356;28;20033;-82
2023/02/19 10:49:54;;;;;;;33.22;22.05;;;358.60;2329.60;;;;;;5070207;28;20032;-83
2023/02/19 10:52:27;;;;;;;21.60;13.90;;;358.60;2329.60;;;;;;5070348;28;20029;-84
2023/02/19 10:54:57;;;;;;;;;;;358.70;2329.60;;;;;;5070296;28;20032;-83
2023/02/19 10:57:28;;;;;;;18.08;12.35;;;358.70;2329.60;;;;;;5070405;28;20382;-83
2023/02/19 11:00:14;;;;;;;17.35;11.13;;;358.80;2329.60;;;;;;5070257;28;20036;-83
2023/02/19 11:02:40;;;;;;;21.48;17.17;;;359.20;2304.00;;;;;;5069988;28;20372;-83
2023/02/19 11:05:15;;;;;;;16.23;11.02;;;384.00;2304.00;;;;;;5069819;28;20032;-82
2023/02/19 11:07:56;;;;;;;18.38;13.18;;;384.10;2278.40;;;;;;5071096;28;20473;-84
2023/02/19 11:10:27;;;;;;;28.90;20.35;;;384.40;2252.80;;;;;;5069938;28;20415;-86
2023/02/19 11:13:02;;;;;;;23.02;17.38;;;384.40;2278.40;;;;;;5071057;28;20428;-84
2023/02/19 11:15:37;;;;;;;16.30;11.95;;;384.40;2278.40;;;;;;5069480;28;20029;-84
2023/02/19 11:18:02;;;;;;;19.45;15.52;;;384.40;2278.40;;;;;;5069888;28;20082;-86
2023/02/19 11:20:28;;;;;;;21.48;15.07;;;384.40;2278.40;;;;;;5069379;28;20150;-82
2023/02/19 11:23:03;;;;;;;21.65;14.35;;;384.60;2252.80;;;;;;5069509;28;20046;-86
2023/02/19 11:25:29;;;;;;;27.40;19.13;;;384.60;2252.80;;;;;;5069534;28;20029;-86
2023/02/19 11:28:19;;;;;;;49.50;28.83;;;384.90;2201.60;;;;;;5069242;28;20032;-83
2023/02/19 11:30:46;;;;;;;22.80;15.48;;;409.70;2227.20;;;;;;5067272;28;20032;-84
2023/02/19 11:33:15;;;;;;;51.60;28.55;;;409.90;2252.80;;;;;;5069442;28;20035;-83
2023/02/19 11:35:44;;;;;;;45.17;22.77;;;410.10;2201.60;;;;;;5068671;28;20110;-82
2023/02/19 11:38:12;;;;;;;60.25;29.67;;;410.40;2176.00;;;;;;5069998;28;20025;-84
2023/02/19 11:40:53;;;;;;;24.88;15.38;;;435.30;2176.00;;;;;;5071069;28;20052;-84
2023/02/19 11:43:22;;;;;;;21.73;11.55;;;435.50;2150.40;;;;;;5069233;28;20115;-83
2023/02/19 11:46:23;;;;;;;19.63;15.18;;;435.70;2073.60;;;;;;5069288;28;20035;-85
2023/02/19 11:49:37;;;;;;;88.35;47.33;;;435.90;2073.60;;;;;;5033372;28;20060;-83
2023/02/19 11:52:25;;;;;;;43.17;19.23;;;460.90;2099.20;;;;;;5046777;28;20033;-83
2023/02/19 11:54:56;;;;;;;18.55;12.23;;;461.30;2048.00;;;;;;5058283;28;20346;-85
2023/02/19 11:57:43;;;;;;;17.10;12.95;;;461.50;2022.40;;;;;;5056404;28;20087;-84
2023/02/19 12:00:26;;;;;;;15.50;10.15;;;486.50;1971.20;;;;;;5056346;28;20087;-83
2023/02/19 12:03:19;;;;;;;27.55;19.48;;;486.60;1971.20;;;;;;5055433;28;20032;-82
2023/02/19 12:06:21;;;;;;;17.38;11.90;;;486.80;1971.20;;;;;;5056966;28;20021;-82
2023/02/19 12:08:58;;;;;;;13.35;10.80;;;487.10;1971.20;;;;;;5054634;28;20033;-81
2023/02/19 12:11:36;;;;;;;11.80;9.82;;;487.30;1894.40;;;;;;5054320;28;20035;-80
2023/02/19 12:14:31;;;;;;;13.35;10.25;;;487.30;1868.80;;;;;;5055207;28;20453;-81
2023/02/19 12:17:23;;;;;;;11.25;8.68;;;512.00;1920.00;;;;;;5055160;28;20124;-82
2023/02/19 12:20:03;;;;;;;12.82;8.13;;;512.30;1868.80;;;;;;5055412;28;20357;-82
2023/02/19 12:22:32;;;;;;;12.00;8.75;;;512.50;1868.80;;;;;;5055578;28;20060;-81
2023/02/19 12:25:30;;;;;;;12.15;9.50;;;512.60;1817.60;;;;;;5055766;28;20116;-82
2023/02/19 12:28:14;;;;;;;14.55;9.82;;;512.70;1792.00;;;;;;5055391;28;20040;-82
2023/02/19 12:30:42;;;;;;;18.08;11.07;;;512.90;1766.40;;;;;;5057851;28;20449;-82
2023/02/19 12:33:30;;;;;;;14.95;11.20;;;537.90;1766.40;;;;;;5055440;28;20021;-82
2023/02/19 12:35:59;;;;;;;16.92;9.45;;;537.80;1868.80;;;;;;5055638;28;20405;-82